Tonasket, WA

2:17 PM PDT on May 22, 2015 (GMT -0700)
Mt. Hull | | Change Station
CLOSE
Current Station
Personal Weather Station
Location: Tonasket, WA
Elevation: 2995 ft
Nearby Weather Stations

Elev 2995 ft 48.83 °N, 119.33 °W | Updated 7 minutes ago

Mostly Cloudy
Mostly Cloudy
71.8 °F
Feels Like 77 °F
N
0.0
Wind Variable Wind from SSE
Gusts 0.0 mph

Today
High -- | Low -- °F
--% Chance of Precip.
Yesterday
High -- | Low -- °F
Precip. -- in
5:08 AM 8:40 PM
Waxing Crescent, 24% visible
Pressure 29.77 in
Visibility 10.0 miles
Clouds Clear
Heat Index 77 °F
Dew Point 43 °F
Humidity 36%
Rainfall 0.00 in
Snow Depth Not available.
UV 2.2 out of 12
Pollen 8.50 out of 12
Air Quality Not available.
Flu Activity Sporadic
METAR KOMK 222053Z AUTO 09006KT 10SM CLR 29/05 A2979 RMK AO2 LTG DSNT E AND SE SLP079 T02940050 58010

More Conditions Fewer Conditions

Pressure 29.77 in
Visibility 10.0 miles
Clouds Clear
Heat Index 77 °F
Dew Point 43 °F
Humidity 36%
Rainfall 0.00 in
Snow Depth Not available.
UV 2.2 out of 12
Pollen 8.50 out of 12
Air Quality Not available.
Flu Activity Sporadic
METAR KOMK 222053Z AUTO 09006KT 10SM CLR 29/05 A2979 RMK AO2 LTG DSNT E AND SE SLP079 T02940050 58010

More Conditions Fewer Conditions

Nowcast | as of 1:32 PM PDT on May 22, 2015

A broken line of thunderstorms stretching from just north of Omak east to just west of Twin Lakes will move slowly southwest of the higher terrain and into the Okanogan Valley through 2 PM. Some other locations include Disautel along Highway 155 and Tonasket. The eastern end of this line is directly over the Devils Elbow burn scar complex of 2014. Be aware that it may only take about one- quarter inch or rain to begin to see minor debris flows on the burn scar terrain. The strongest storms will produce dangerous lightning...brief heavy downpours... and possibly very small hail.

×

10-Day Weather Forecast

Almanac

Astronomy

May. 22, 2015 Rise Set
Actual Time
Civil Twilight
Nautical Twilight
Astronomical Twilight
Moon
Length of Visible Light
Length of Day
Tomorrow will be .
, % of the Moon is Illuminated

Today's Extremes

State Highs State Lows

Community

WunderPhotos

Upload Photos

1,823,305 photos uploaded!

WunderBlogs® & News

Nearby

Air Quality

  Air Quality AQ Index Pollutant
Not available.

Snow Depth

Station Depth Elevation

Earthquake Activity

City Distance Mag. Time & Date
Minimum magnitude displayed is 2.5.

Coastal Water Temperatures

Place Temperature

Stations

Nearby Weather Stations

Station Location Temp. Windchill Dew Point Humidity Wind Precip. Elev Updated Type